Time;durP1;ratioP1;P1;durP2;ratioP2;P2;SDS_P1;SDS_P2;PMS_P1;PMS_P2;Temp;Humidity;BMP_temperature;BMP_pressure;BME280_temperature;BME280_humidity;BME280_pressure;Samples;Min_cycle;Max_cycle;Signal;HPM_P1;HPM_P2
2023/06/23 00:00:27;;;;;;;;;;;20.30;88.70;;;;;;5131636;27;19911;-71
2023/06/23 00:02:53;;;;;;;;;;;20.30;89.10;;;;;;5111002;27;19915;-72
2023/06/23 00:05:19;;;;;;;;;;;20.30;88.60;;;;;;5110670;28;19942;-71
2023/06/23 00:07:45;;;;;;;;;;;20.30;88.70;;;;;;5111041;28;20500;-71
2023/06/23 00:10:11;;;;;;;;;;;20.30;88.60;;;;;;5108292;28;19912;-71
2023/06/23 00:12:41;;;;;;;;;;;20.30;88.70;;;;;;5110196;28;19912;-71
2023/06/23 00:15:11;;;;;;;;;;;20.20;88.60;;;;;;5110614;28;19918;-71
2023/06/23 00:17:37;;;;;;;;;;;20.30;88.70;;;;;;5110351;28;19912;-70
2023/06/23 00:20:07;;;;;;;;;;;20.20;88.90;;;;;;5110314;28;19957;-71
2023/06/23 00:22:32;;;;;;;;;;;20.20;88.50;;;;;;5110221;28;19916;-71
2023/06/23 00:24:58;;;;;;;;;;;20.20;88.80;;;;;;5108844;28;19927;-71
2023/06/23 00:27:23;;;;;;;;;;;20.20;88.50;;;;;;5110011;28;19934;-71
2023/06/23 00:29:49;;;;;;;;;;;20.10;88.80;;;;;;5110266;28;19935;-71
2023/06/23 00:32:14;;;;;;;;;;;20.20;88.90;;;;;;5110241;28;20012;-70
2023/06/23 00:34:40;;;;;;;;;;;20.10;88.80;;;;;;5110160;28;20374;-71
2023/06/23 00:37:05;;;;;;;;;;;20.10;88.90;;;;;;5108535;28;19912;-71
2023/06/23 00:39:31;;;;;;;;;;;20.10;88.70;;;;;;5110245;28;19908;-71
2023/06/23 00:42:01;;;;;;;;;;;20.10;88.60;;;;;;5109752;28;19994;-71
2023/06/23 00:44:26;;;;;;;;;;;20.10;88.70;;;;;;5110042;28;19908;-71
2023/06/23 00:46:52;;;;;;;;;;;20.10;88.70;;;;;;5109639;28;19908;-71
2023/06/23 00:49:18;;;;;;;;;;;20.10;88.80;;;;;;5109970;28;19946;-71
2023/06/23 00:51:44;;;;;;;;;;;20.10;88.60;;;;;;5113807;27;19955;-71
2023/06/23 00:54:09;;;;;;;;;;;20.00;89.00;;;;;;5110003;28;19979;-71
2023/06/23 00:56:35;;;;;;;;;;;20.00;88.70;;;;;;5109582;28;20459;-71
2023/06/23 00:59:02;;;;;;;;;;;20.10;89.00;;;;;;5108408;28;20272;-71
2023/06/23 01:01:28;;;;;;;;;;;20.00;88.90;;;;;;5109032;28;19992;-71
2023/06/23 01:03:57;;;;;;;;;;;20.00;89.10;;;;;;5109352;28;19939;-71
2023/06/23 01:06:25;;;;;;;;;;;20.00;89.00;;;;;;5109055;28;19962;-71
2023/06/23 01:08:51;;;;;;;;;;;20.00;89.00;;;;;;5109562;28;19927;-71
2023/06/23 01:11:21;;;;;;;;;;;19.90;89.10;;;;;;5100918;28;20030;-71
2023/06/23 01:13:51;;;;;;;;;;;19.90;88.80;;;;;;5109421;28;20049;-71
2023/06/23 01:16:18;;;;;;;;;;;20.00;89.10;;;;;;5108930;28;20564;-71
2023/06/23 01:18:44;;;;;;;;;;;19.90;88.90;;;;;;5109431;28;19941;-71
2023/06/23 01:21:11;;;;;;;;;;;19.90;89.00;;;;;;5107720;28;19912;-71
2023/06/23 01:24:15;;;;;;;;;;;19.90;89.00;;;;;;5109187;28;20557;-71
2023/06/23 01:26:59;;;;;;;;;;;19.90;89.00;;;;;;5065207;28;19921;-71
2023/06/23 01:29:28;;;;;;;;;;;19.90;89.10;;;;;;5049292;28;19915;-71
2023/06/23 01:32:00;;;;;;;;;;;19.90;89.10;;;;;;5089680;28;20591;-71
2023/06/23 01:34:31;;;;;;;;;;;19.90;89.10;;;;;;5089162;28;19912;-71
2023/06/23 01:37:00;;;;;;;;;;;19.80;89.10;;;;;;5088691;28;19918;-71
2023/06/23 01:39:27;;;;;;;;;;;19.80;89.10;;;;;;5087391;28;19909;-71
2023/06/23 01:41:56;;;;;;;;;;;19.80;89.00;;;;;;5088675;28;19968;-71
2023/06/23 01:44:22;;;;;;;;;;;19.80;89.00;;;;;;5088660;28;20014;-71
2023/06/23 01:46:51;;;;;;;;;;;19.80;89.30;;;;;;5088178;28;19912;-71
2023/06/23 01:49:20;;;;;;;;;;;19.80;89.10;;;;;;5121345;27;20367;-71
2023/06/23 01:51:47;;;;;;;;;;;19.80;88.90;;;;;;5121142;27;19908;-70
2023/06/23 01:54:14;;;;;;;;;;;19.80;89.00;;;;;;5107664;28;19947;-71
2023/06/23 01:56:41;;;;;;;;;;;19.80;89.10;;;;;;5108383;28;19920;-70
2023/06/23 01:59:08;;;;;;;;;;;19.80;89.40;;;;;;5107596;28;19908;-71
2023/06/23 02:01:35;;;;;;;;;;;19.70;89.10;;;;;;5107284;28;20333;-71
2023/06/23 02:04:01;;;;;;;;;;;19.70;89.20;;;;;;5108985;28;19947;-71
2023/06/23 02:06:27;;;;;;;;;;;19.70;89.30;;;;;;5108406;28;19912;-71
2023/06/23 02:08:53;;;;;;;;;;;19.70;89.20;;;;;;5108508;28;20409;-70
2023/06/23 02:11:19;;;;;;;;;;;19.70;89.10;;;;;;5100524;28;19915;-71
2023/06/23 02:13:45;;;;;;;;;;;19.70;89.70;;;;;;5108859;28;19919;-70
2023/06/23 02:16:11;;;;;;;;;;;19.70;89.30;;;;;;5112652;28;19912;-70
2023/06/23 02:18:38;;;;;;;;;;;19.70;89.70;;;;;;5113031;28;19915;-71
2023/06/23 02:21:05;;;;;;;;;;;19.70;89.40;;;;;;5112809;28;20010;-71
2023/06/23 02:23:31;;;;;;;;;;;19.70;89.50;;;;;;5111758;28;19926;-71
2023/06/23 02:25:57;;;;;;;;;;;19.60;89.40;;;;;;5112514;28;19955;-71
2023/06/23 02:28:23;;;;;;;;;;;19.70;89.40;;;;;;5112768;28;20411;-71
2023/06/23 02:30:49;;;;;;;;;;;19.60;89.30;;;;;;5112429;28;19955;-71
2023/06/23 02:33:14;;;;;;;;;;;19.70;89.60;;;;;;5111327;28;19995;-71
2023/06/23 02:35:40;;;;;;;;;;;19.60;89.30;;;;;;5112257;28;19919;-71
2023/06/23 02:38:08;;;;;;;;;;;19.60;89.60;;;;;;5112607;28;19911;-71
2023/06/23 02:40:34;;;;;;;;;;;19.60;89.40;;;;;;5112510;28;19908;-70
2023/06/23 02:42:59;;;;;;;;;;;19.70;89.40;;;;;;5112306;28;19919;-71
2023/06/23 02:45:27;;;;;;;;;;;19.60;89.40;;;;;;5112088;28;19941;-71
2023/06/23 02:47:55;;;;;;;;;;;19.60;89.60;;;;;;5111033;28;19915;-71
2023/06/23 02:50:28;;;;;;;;;;;19.60;89.60;;;;;;5112557;28;19916;-71
2023/06/23 02:52:56;;;;;;;;;;;19.50;89.80;;;;;;5114733;27;19911;-71
2023/06/23 02:55:22;;;;;;;;;;;19.50;89.60;;;;;;5111958;28;19960;-71
2023/06/23 02:57:50;;;;;;;;;;;19.50;89.70;;;;;;5112035;27;19908;-71
2023/06/23 03:00:21;;;;;;;;;;;19.50;89.40;;;;;;5112056;28;19912;-71
2023/06/23 03:02:50;;;;;;;;;;;19.60;89.60;;;;;;5112172;28;20280;-71
2023/06/23 03:05:16;;;;;;;;;;;19.50;89.60;;;;;;5110501;28;19973;-71
2023/06/23 03:07:41;;;;;;;;;;;19.50;89.50;;;;;;5111766;28;19915;-71
2023/06/23 03:10:07;;;;;;;;;;;19.50;89.50;;;;;;5103278;28;20581;-71
2023/06/23 03:12:33;;;;;;;;;;;19.60;89.60;;;;;;5111463;28;19911;-71
2023/06/23 03:14:59;;;;;;;;;;;19.50;89.70;;;;;;5111453;28;19916;-71
2023/06/23 03:17:26;;;;;;;;;;;19.50;89.60;;;;;;5111176;27;19935;-71
2023/06/23 03:19:51;;;;;;;;;;;19.50;89.60;;;;;;5111802;28;19918;-71
2023/06/23 03:22:18;;;;;;;;;;;19.50;89.90;;;;;;5115377;27;19927;-70
2023/06/23 03:24:45;;;;;;;;;;;19.50;89.90;;;;;;5110908;28;20376;-71
2023/06/23 03:27:13;;;;;;;;;;;19.50;89.70;;;;;;5110928;28;19912;-71
2023/06/23 03:29:47;;;;;;;;;;;19.40;89.90;;;;;;5111613;28;19916;-71
2023/06/23 03:32:14;;;;;;;;;;;19.40;89.60;;;;;;5111303;28;20336;-71
2023/06/23 03:34:47;;;;;;;;;;;19.50;89.70;;;;;;5111535;28;19915;-71
2023/06/23 03:37:15;;;;;;;;;;;19.40;89.80;;;;;;5111014;28;19944;-71
2023/06/23 03:39:42;;;;;;;;;;;19.40;89.80;;;;;;5111414;28;19920;-71
2023/06/23 03:42:08;;;;;;;;;;;19.50;89.80;;;;;;5109850;28;20344;-71
2023/06/23 03:44:37;;;;;;;;;;;19.50;89.80;;;;;;5111315;28;19916;-71
2023/06/23 03:47:06;;;;;;;;;;;19.40;89.70;;;;;;5109306;28;19918;-71
2023/06/23 03:49:37;;;;;;;;;;;19.40;89.80;;;;;;5111352;28;20579;-71
2023/06/23 03:52:04;;;;;;;;;;;19.40;89.90;;;;;;5114592;27;19912;-71
2023/06/23 03:54:31;;;;;;;;;;;19.40;89.90;;;;;;5119539;27;19912;-71
2023/06/23 03:56:57;;;;;;;;;;;19.40;89.80;;;;;;5131222;27;20508;-72
2023/06/23 03:59:25;;;;;;;;;;;19.40;89.80;;;;;;5131798;27;19907;-71
2023/06/23 04:01:51;;;;;;;;;;;19.40;89.90;;;;;;5107575;27;19908;-71
2023/06/23 04:04:18;;;;;;;;;;;19.40;89.80;;;;;;5091144;28;19908;-71
2023/06/23 04:06:45;;;;;;;;;;;19.40;90.00;;;;;;5110388;28;20033;-71
2023/06/23 04:09:12;;;;;;;;;;;19.40;90.00;;;;;;5107844;28;20002;-71
2023/06/23 04:11:38;;;;;;;;;;;19.40;90.00;;;;;;5104866;28;19914;-71
2023/06/23 04:14:05;;;;;;;;;;;19.40;90.10;;;;;;5110714;28;20539;-71
2023/06/23 04:16:33;;;;;;;;;;;19.40;90.00;;;;;;5106846;27;19908;-71
2023/06/23 04:19:00;;;;;;;;;;;19.40;89.90;;;;;;5109107;28;19919;-71
2023/06/23 04:21:26;;;;;;;;;;;19.30;89.90;;;;;;5110303;28;19965;-71
2023/06/23 04:23:53;;;;;;;;;;;19.30;90.10;;;;;;5110449;28;19941;-71
2023/06/23 04:26:18;;;;;;;;;;;19.30;90.00;;;;;;5109816;28;19920;-71
2023/06/23 04:28:45;;;;;;;;;;;19.40;90.10;;;;;;5110531;28;20013;-71
2023/06/23 04:31:12;;;;;;;;;;;19.30;89.90;;;;;;5110060;28;19947;-71
2023/06/23 04:33:37;;;;;;;;;;;19.40;90.00;;;;;;5110225;28;20017;-71
2023/06/23 04:36:11;;;;;;;;;;;19.40;90.00;;;;;;5108451;28;20372;-71
2023/06/23 04:38:37;;;;;;;;;;;19.30;89.90;;;;;;5110506;28;19912;-71
2023/06/23 04:41:04;;;;;;;;;;;19.40;90.00;;;;;;5110031;28;19915;-71
2023/06/23 04:43:38;;;;;;;;;;;19.40;90.00;;;;;;5110409;28;20241;-71
2023/06/23 04:46:11;;;;;;;;;;;19.40;90.00;;;;;;5109444;28;20344;-71
2023/06/23 04:48:40;;;;;;;;;;;19.30;89.90;;;;;;5110157;28;19998;-71
2023/06/23 04:51:07;;;;;;;;;;;19.40;90.10;;;;;;5113542;27;19907;-71
2023/06/23 04:53:36;;;;;;;;;;;19.40;90.00;;;;;;5109996;28;19964;-71
2023/06/23 04:56:04;;;;;;;;;;;19.40;89.90;;;;;;5109370;28;20400;-71
2023/06/23 04:58:33;;;;;;;;;;;19.30;90.00;;;;;;5109838;28;20351;-71
2023/06/23 05:00:59;;;;;;;;;;;19.30;90.00;;;;;;5109558;28;20381;-71
2023/06/23 05:03:26;;;;;;;;;;;19.30;90.00;;;;;;5109212;28;19933;-71
2023/06/23 05:05:52;;;;;;;;;;;19.40;90.00;;;;;;5109004;28;20296;-71
2023/06/23 05:08:20;;;;;;;;;;;19.40;90.00;;;;;;5109834;28;19919;-71
2023/06/23 05:10:46;;;;;;;;;;;19.40;90.10;;;;;;5109202;28;19912;-71
2023/06/23 05:13:14;;;;;;;;;;;19.40;90.10;;;;;;5109303;28;20276;-71
2023/06/23 05:15:39;;;;;;;;;;;19.30;90.00;;;;;;5108984;28;19919;-71
2023/06/23 05:18:06;;;;;;;;;;;19.30;90.00;;;;;;5109450;28;19908;-71
2023/06/23 05:20:32;;;;;;;;;;;19.40;90.00;;;;;;5109431;28;19950;-71
2023/06/23 05:23:01;;;;;;;;;;;19.40;90.00;;;;;;5109256;28;20012;-71
2023/06/23 05:25:30;;;;;;;;;;;19.40;90.10;;;;;;5109305;28;20368;-72
2023/06/23 05:28:00;;;;;;;;;;;19.40;90.00;;;;;;5109593;28;19908;-72
2023/06/23 05:30:26;;;;;;;;;;;19.40;90.00;;;;;;5109373;28;20367;-72
2023/06/23 05:32:53;;;;;;;;;;;19.40;90.00;;;;;;5105625;28;20329;-71
2023/06/23 05:35:18;;;;;;;;;;;19.40;90.10;;;;;;5107950;27;19912;-71
2023/06/23 05:37:45;;;;;;;;;;;19.40;90.10;;;;;;5117698;27;20275;-71
2023/06/23 05:40:15;;;;;;;;;;;19.40;90.00;;;;;;5109183;28;19912;-72
2023/06/23 05:42:41;;;;;;;;;;;19.40;90.00;;;;;;5109418;28;20295;-71
2023/06/23 05:45:06;;;;;;;;;;;19.40;90.20;;;;;;5108685;28;19924;-71
2023/06/23 05:47:35;;;;;;;;;;;19.40;90.10;;;;;;5108560;28;19908;-71
2023/06/23 05:50:02;;;;;;;;;;;19.40;90.00;;;;;;5108924;28;19943;-71
2023/06/23 05:52:29;;;;;;;;;;;19.40;89.80;;;;;;5108848;28;20016;-71
2023/06/23 05:54:56;;;;;;;;;;;19.50;90.00;;;;;;5121408;28;20299;-71
2023/06/23 05:57:24;;;;;;;;;;;19.40;90.10;;;;;;5129224;27;19911;-71
2023/06/23 05:59:54;;;;;;;;;;;19.40;90.10;;;;;;5129436;27;19912;-71
2023/06/23 06:02:21;;;;;;;;;;;19.40;90.20;;;;;;5122809;27;19908;-72
2023/06/23 06:04:48;;;;;;;;;;;19.40;90.10;;;;;;5093353;28;19908;-71
2023/06/23 06:07:15;;;;;;;;;;;19.40;90.20;;;;;;5107423;28;20368;-72
2023/06/23 06:09:41;;;;;;;;;;;19.50;90.10;;;;;;5102093;28;19916;-71
2023/06/23 06:12:07;;;;;;;;;;;19.50;90.00;;;;;;5107114;28;19950;-71
2023/06/23 06:14:34;;;;;;;;;;;19.50;90.00;;;;;;5109156;28;19951;-71
2023/06/23 06:17:00;;;;;;;;;;;19.50;90.00;;;;;;5107016;28;19914;-71
2023/06/23 06:19:27;;;;;;;;;;;19.50;90.00;;;;;;5108871;28;19911;-71
2023/06/23 06:21:54;;;;;;;;;;;19.50;90.00;;;;;;5108628;28;19915;-72
2023/06/23 06:24:20;;;;;;;;;;;19.50;90.10;;;;;;5108823;28;19923;-71
2023/06/23 06:26:48;;;;;;;;;;;19.50;90.00;;;;;;5108129;28;19916;-71
2023/06/23 06:29:15;;;;;;;;;;;19.60;90.00;;;;;;5108821;28;19934;-71
2023/06/23 06:31:42;;;;;;;;;;;19.60;90.10;;;;;;5108327;28;19936;-71
2023/06/23 06:34:09;;;;;;;;;;;19.60;90.00;;;;;;5108699;28;19912;-71
2023/06/23 06:36:36;;;;;;;;;;;19.70;90.00;;;;;;5108188;28;19912;-71
2023/06/23 06:39:02;;;;;;;;;;;19.70;90.00;;;;;;5108726;28;19958;-71
2023/06/23 06:41:29;;;;;;;;;;;19.70;89.80;;;;;;5108287;28;19939;-71
2023/06/23 06:43:57;;;;;;;;;;;19.80;90.00;;;;;;5108613;28;20280;-71
2023/06/23 06:46:23;;;;;;;;;;;19.80;90.10;;;;;;5108014;28;19919;-72
2023/06/23 06:48:50;;;;;;;;;;;19.90;89.60;;;;;;5107035;28;19919;-71
2023/06/23 06:51:17;;;;;;;;;;;19.90;90.00;;;;;;5112206;28;19908;-71
2023/06/23 06:53:44;;;;;;;;;;;20.00;89.80;;;;;;5108616;28;19912;-71
2023/06/23 06:56:09;;;;;;;;;;;20.00;90.10;;;;;;5107667;28;19931;-72
2023/06/23 06:58:35;;;;;;;;;;;20.00;89.50;;;;;;5108513;28;20327;-71
2023/06/23 07:01:01;;;;;;;;;;;20.10;89.20;;;;;;5107746;28;19912;-71
2023/06/23 07:03:26;;;;;;;;;;;20.10;89.30;;;;;;5102755;28;19961;-71
2023/06/23 07:05:52;;;;;;;;;;;20.10;89.10;;;;;;5109727;28;19912;-71
2023/06/23 07:08:17;;;;;;;;;;;20.20;88.90;;;;;;5108045;28;19908;-72
2023/06/23 07:10:43;;;;;;;;;;;20.20;89.40;;;;;;5109443;28;20048;-69
2023/06/23 07:13:08;;;;;;;;;;;20.20;89.40;;;;;;5105503;28;20376;-71
2023/06/23 07:15:34;;;;;;;;;;;20.30;89.20;;;;;;5108344;28;19943;-71
2023/06/23 07:17:59;;;;;;;;;;;20.30;89.40;;;;;;5111416;27;19954;-71
2023/06/23 07:20:25;;;;;;;;;;;20.30;89.50;;;;;;5111196;27;19943;-71
2023/06/23 07:22:50;;;;;;;;;;;20.30;89.00;;;;;;5112991;27;20441;-71
2023/06/23 07:25:16;;;;;;;;;;;20.30;89.40;;;;;;5111690;27;19919;-71
2023/06/23 07:27:41;;;;;;;;;;;20.30;89.10;;;;;;5111236;28;19911;-71
2023/06/23 07:30:07;;;;;;;;;;;20.30;89.30;;;;;;5111463;28;19912;-71
2023/06/23 07:32:32;;;;;;;;;;;20.30;89.10;;;;;;5111232;28;19990;-70
2023/06/23 07:34:58;;;;;;;;;;;20.30;89.10;;;;;;5111463;28;19916;-71
2023/06/23 07:37:23;;;;;;;;;;;20.30;88.90;;;;;;5110979;28;19959;-71
2023/06/23 07:39:49;;;;;;;;;;;20.30;89.00;;;;;;5111465;28;20371;-71
2023/06/23 07:42:14;;;;;;;;;;;20.40;88.90;;;;;;5111097;28;19920;-71
2023/06/23 07:44:40;;;;;;;;;;;20.40;89.00;;;;;;5111205;28;19911;-71
2023/06/23 07:47:06;;;;;;;;;;;20.40;89.00;;;;;;5110740;28;20018;-71
2023/06/23 07:49:31;;;;;;;;;;;20.40;88.70;;;;;;5111345;28;20425;-71
2023/06/23 07:52:00;;;;;;;;;;;20.50;88.60;;;;;;5114732;27;19907;-71
2023/06/23 07:54:27;;;;;;;;;;;20.40;88.70;;;;;;5109897;28;19912;-71
2023/06/23 07:56:52;;;;;;;;;;;20.50;88.70;;;;;;5128582;27;19911;-70
2023/06/23 07:59:18;;;;;;;;;;;20.50;88.60;;;;;;5131678;27;19965;-71
2023/06/23 08:01:43;;;;;;;;;;;20.40;89.30;;;;;;5130993;27;19912;-71
2023/06/23 08:04:09;;;;;;;;;;;20.40;89.30;;;;;;5094011;27;19908;-70
2023/06/23 08:06:34;;;;;;;;;;;20.50;89.10;;;;;;5108325;28;19969;-71
2023/06/23 08:09:00;;;;;;;;;;;20.50;88.80;;;;;;5110468;28;20304;-71
2023/06/23 08:11:25;;;;;;;;;;;20.50;88.50;;;;;;5109644;28;20035;-71
2023/06/23 08:13:51;;;;;;;;;;;20.50;88.50;;;;;;5110665;28;20433;-71
2023/06/23 08:16:16;;;;;;;;;;;20.50;89.20;;;;;;5110040;28;20392;-71
2023/06/23 08:18:42;;;;;;;;;;;20.50;88.60;;;;;;5110817;28;19908;-71
2023/06/23 08:21:09;;;;;;;;;;;20.50;88.70;;;;;;5110645;28;19912;-71
2023/06/23 08:23:35;;;;;;;;;;;20.50;88.70;;;;;;5110318;28;19920;-71
2023/06/23 08:26:00;;;;;;;;;;;20.50;88.30;;;;;;5110060;28;19916;-70
2023/06/23 08:28:26;;;;;;;;;;;20.50;88.70;;;;;;5110517;28;19912;-70
2023/06/23 08:30:51;;;;;;;;;;;20.60;88.70;;;;;;5110511;28;19946;-71
2023/06/23 08:33:17;;;;;;;;;;;20.60;88.40;;;;;;5110373;28;19943;-71
2023/06/23 08:35:42;;;;;;;;;;;20.60;88.40;;;;;;5110197;28;19911;-71
2023/06/23 08:38:12;;;;;;;;;;;20.60;88.10;;;;;;5110308;28;20315;-70
2023/06/23 08:40:38;;;;;;;;;;;20.60;88.20;;;;;;5110277;28;19912;-71
2023/06/23 08:43:03;;;;;;;;;;;20.60;88.00;;;;;;5109675;27;20720;-71
2023/06/23 08:45:30;;;;;;;;;;;20.70;87.70;;;;;;5109892;28;19923;-71
2023/06/23 08:47:58;;;;;;;;;;;20.70;87.60;;;;;;5109697;28;19911;-71
2023/06/23 08:50:24;;;;;;;;;;;20.70;87.50;;;;;;5110562;27;19912;-71
2023/06/23 08:52:49;;;;;;;;;;;20.80;87.40;;;;;;5112433;27;20365;-70
2023/06/23 08:55:15;;;;;;;;;;;20.80;87.20;;;;;;5107922;28;19918;-70
2023/06/23 08:57:41;;;;;;;;;;;20.80;87.30;;;;;;5108531;28;19923;-71
2023/06/23 09:00:07;;;;;;;;;;;20.80;87.40;;;;;;5109343;28;19911;-70
2023/06/23 09:02:33;;;;;;;;;;;20.90;87.00;;;;;;5107790;28;19911;-70
2023/06/23 09:04:59;;;;;;;;;;;20.90;87.10;;;;;;5109527;28;19968;-70
2023/06/23 09:07:25;;;;;;;;;;;20.80;87.10;;;;;;5109309;27;19911;-70
2023/06/23 09:09:50;;;;;;;;;;;20.90;87.10;;;;;;5109247;28;20402;-70
2023/06/23 09:12:16;;;;;;;;;;;20.80;87.00;;;;;;5109060;28;19912;-70
2023/06/23 09:14:42;;;;;;;;;;;20.80;87.10;;;;;;5108304;28;20560;-71
2023/06/23 09:17:08;;;;;;;;;;;20.90;87.00;;;;;;5109398;28;20360;-71
2023/06/23 09:19:34;;;;;;;;;;;20.90;86.80;;;;;;5109824;28;19920;-71
2023/06/23 09:22:00;;;;;;;;;;;20.90;86.80;;;;;;5109433;28;19908;-71
2023/06/23 09:24:39;;;;;;;;;;;21.00;86.60;;;;;;5107555;28;19919;-71
2023/06/23 09:27:04;;;;;;;;;;;21.00;86.60;;;;;;5108835;28;19915;-71
2023/06/23 09:29:30;;;;;;;;;;;21.10;86.60;;;;;;5109440;28;20300;-70
2023/06/23 09:31:57;;;;;;;;;;;21.10;86.40;;;;;;5109282;28;19915;-71
2023/06/23 09:34:24;;;;;;;;;;;21.10;87.00;;;;;;5089090;28;20367;-71
2023/06/23 09:36:50;;;;;;;;;;;21.10;86.40;;;;;;5088493;28;20011;-70
2023/06/23 09:39:15;;;;;;;;;;;21.20;86.30;;;;;;5088993;28;19912;-70
2023/06/23 09:41:52;;;;;;;;;;;21.40;86.20;;;;;;5103375;28;20257;-70
2023/06/23 09:44:18;;;;;;;;;;;21.50;85.50;;;;;;5107786;28;19951;-71
2023/06/23 09:46:43;;;;;;;;;;;21.50;85.20;;;;;;5108583;28;19957;-70
2023/06/23 09:49:09;;;;;;;;;;;21.50;85.20;;;;;;5109221;28;19912;-70
2023/06/23 09:51:37;;;;;;;;;;;21.50;85.20;;;;;;5112684;28;19908;-71
2023/06/23 09:54:03;;;;;;;;;;;21.60;85.10;;;;;;5107921;28;20666;-71
2023/06/23 09:56:29;;;;;;;;;;;21.70;84.90;;;;;;5118500;28;19922;-71
2023/06/23 09:58:54;;;;;;;;;;;21.70;84.80;;;;;;5129531;27;19956;-70
2023/06/23 10:01:20;;;;;;;;;;;21.70;84.60;;;;;;5127855;27;19955;-71
2023/06/23 10:03:46;;;;;;;;;;;21.80;84.30;;;;;;5098943;27;19924;-70
2023/06/23 10:06:21;;;;;;;;;;;21.80;84.20;;;;;;5105127;28;19916;-70
2023/06/23 10:08:47;;;;;;;;;;;21.90;84.20;;;;;;5109083;28;20249;-71
2023/06/23 10:11:15;;;;;;;;;;;21.90;84.00;;;;;;5108368;28;19925;-71
2023/06/23 10:13:41;;;;;;;;;;;22.00;84.10;;;;;;5108844;28;20033;-70
2023/06/23 10:16:07;;;;;;;;;;;22.10;83.90;;;;;;5102434;28;20002;-70
2023/06/23 10:18:33;;;;;;;;;;;22.10;83.40;;;;;;5102524;28;19919;-70
2023/06/23 10:20:59;;;;;;;;;;;22.20;83.30;;;;;;5102446;28;19922;-70
2023/06/23 10:23:25;;;;;;;;;;;22.10;83.60;;;;;;5104926;28;19926;-70
2023/06/23 10:25:54;;;;;;;;;;;22.20;83.50;;;;;;5104956;28;19920;-70
2023/06/23 10:28:20;;;;;;;;;;;22.30;83.40;;;;;;5108550;28;19922;-70
2023/06/23 10:30:46;;;;;;;;;;;22.30;83.50;;;;;;5108766;28;19994;-70
2023/06/23 10:33:17;;;;;;;;;;;22.20;83.70;;;;;;5107122;28;20080;-70
2023/06/23 10:35:44;;;;;;;;;;;22.20;83.70;;;;;;5111463;28;19914;-70
2023/06/23 10:38:12;;;;;;;;;;;22.30;83.80;;;;;;5112400;28;19915;-70
2023/06/23 10:40:39;;;;;;;;;;;22.30;83.80;;;;;;5111111;28;19912;-71
2023/06/23 10:43:05;;;;;;;;;;;22.40;83.40;;;;;;5112219;28;20296;-70
2023/06/23 10:45:31;;;;;;;;;;;22.60;83.20;;;;;;5115075;27;19981;-70
2023/06/23 10:47:57;;;;;;;;;;;22.60;82.60;;;;;;5108922;28;19915;-70
2023/06/23 10:50:24;;;;;;;;;;;22.60;82.90;;;;;;5111135;27;20296;-70
2023/06/23 10:52:49;;;;;;;;;;;22.60;83.20;;;;;;5113431;27;19912;-70
2023/06/23 10:55:33;;;;;;;;;;;22.60;83.30;;;;;;5111358;28;19914;-70
2023/06/23 10:58:09;;;;;;;;;;;22.60;83.30;;;;;;5111008;27;19968;-70
2023/06/23 11:00:35;;;;;;;;;;;22.70;84.10;;;;;;5109755;28;19922;-70
2023/06/23 11:03:01;;;;;;;;;;;22.80;83.40;;;;;;5110891;28;19912;-70
2023/06/23 11:05:26;;;;;;;;;;;22.90;83.00;;;;;;5110865;28;20027;-70
2023/06/23 11:08:02;;;;;;;;;;;23.00;82.70;;;;;;5111179;28;20071;-70
2023/06/23 11:10:46;;;;;;;;;;;23.10;82.40;;;;;;5102659;28;19959;-70
2023/06/23 11:13:12;;;;;;;;;;;23.10;82.20;;;;;;5110680;28;19916;-70
2023/06/23 11:15:38;;;;;;;;;;;23.10;82.40;;;;;;5110830;28;19912;-70
2023/06/23 11:18:04;;;;;;;;;;;23.10;82.50;;;;;;5110648;28;19919;-70
2023/06/23 11:20:31;;;;;;;;;;;23.30;82.40;;;;;;5110858;28;19915;-70
2023/06/23 11:23:00;;;;;;;;;;;23.30;82.10;;;;;;5110554;28;19920;-70
2023/06/23 11:25:32;;;;;;;;;;;23.50;81.90;;;;;;5110395;28;19922;-70
2023/06/23 11:28:16;;;;;;;;;;;23.60;81.30;;;;;;5108854;28;19915;-71
2023/06/23 11:31:01;;;;;;;;;;;23.70;81.30;;;;;;5109356;28;20631;-70
2023/06/23 11:33:27;;;;;;;;;;;23.70;81.20;;;;;;5110409;28;19919;-70
2023/06/23 11:35:53;;;;;;;;;;;23.70;81.10;;;;;;5110422;28;19919;-70
2023/06/23 11:38:19;;;;;;;;;;;23.80;80.90;;;;;;5110692;28;19912;-70
2023/06/23 11:40:44;;;;;;;;;;;23.90;81.60;;;;;;5109081;28;19918;-70
2023/06/23 11:43:10;;;;;;;;;;;23.90;81.40;;;;;;5107678;27;20001;-70
2023/06/23 11:45:36;;;;;;;;;;;24.00;81.00;;;;;;5118977;27;19919;-70
2023/06/23 11:48:01;;;;;;;;;;;24.10;80.10;;;;;;5121461;27;19912;-70
2023/06/23 11:50:27;;;;;;;;;;;24.20;80.90;;;;;;5130616;27;19911;-70
2023/06/23 11:52:53;;;;;;;;;;;24.30;80.70;;;;;;5112440;27;20399;-70
2023/06/23 11:55:19;;;;;;;;;;;24.30;80.90;;;;;;5115297;27;19920;-70
2023/06/23 11:57:45;;;;;;;;;;;24.30;80.70;;;;;;5130223;27;19957;-70
2023/06/23 12:00:11;;;;;;;;;;;24.40;80.30;;;;;;5130307;27;19915;-70
2023/06/23 12:02:37;;;;;;;;;;;24.40;80.20;;;;;;5118932;27;19919;-70
2023/06/23 12:05:03;;;;;;;;;;;24.40;79.90;;;;;;5095568;28;19907;-70
2023/06/23 12:07:31;;;;;;;;;;;24.50;80.20;;;;;;5108875;28;19983;-70
2023/06/23 12:09:57;;;;;;;;;;;24.60;80.50;;;;;;5108747;28;19919;-70
2023/06/23 12:12:23;;;;;;;;;;;24.60;79.10;;;;;;5108002;28;19911;-70
2023/06/23 12:14:49;;;;;;;;;;;24.70;80.20;;;;;;5103877;28;19924;-71
2023/06/23 12:17:15;;;;;;;;;;;24.70;80.10;;;;;;5108935;28;20352;-70
2023/06/23 12:19:43;;;;;;;;;;;24.80;80.20;;;;;;5109866;28;19961;-70
2023/06/23 12:22:13;;;;;;;;;;;24.80;79.90;;;;;;5112967;27;20361;-70
2023/06/23 12:24:39;;;;;;;;;;;24.90;79.90;;;;;;5109575;28;19922;-70
2023/06/23 12:27:04;;;;;;;;;;;24.90;79.10;;;;;;5109103;28;19912;-70
2023/06/23 12:29:31;;;;;;;;;;;24.90;78.80;;;;;;5109335;28;19916;-70
2023/06/23 12:32:00;;;;;;;;;;;25.00;79.60;;;;;;5109143;28;19911;-71
2023/06/23 12:34:32;;;;;;;;;;;25.00;79.30;;;;;;5109131;28;20661;-71
2023/06/23 12:37:08;;;;;;;;;;;25.10;79.70;;;;;;5108779;28;20449;-71
2023/06/23 12:39:34;;;;;;;;;;;25.00;79.50;;;;;;5109121;28;20576;-70
2023/06/23 12:42:00;;;;;;;;;;;25.10;78.50;;;;;;5108892;28;19907;-71
2023/06/23 12:44:26;;;;;;;;;;;25.30;79.60;;;;;;5108835;28;19918;-70
2023/06/23 12:46:53;;;;;;;;;;;25.30;79.60;;;;;;5108618;28;19911;-70
2023/06/23 12:49:19;;;;;;;;;;;25.30;79.00;;;;;;5108827;28;19923;-70
2023/06/23 12:51:46;;;;;;;;;;;25.30;78.30;;;;;;5112748;27;20418;-71
2023/06/23 12:54:11;;;;;;;;;;;25.30;78.30;;;;;;5109451;28;19969;-71
2023/06/23 12:56:37;;;;;;;;;;;25.40;78.30;;;;;;5107678;28;19947;-71
2023/06/23 12:59:02;;;;;;;;;;;25.40;78.30;;;;;;5123820;27;19911;-71
2023/06/23 13:01:28;;;;;;;;;;;25.50;78.50;;;;;;5129936;27;19911;-71
2023/06/23 13:03:53;;;;;;;;;;;25.60;78.10;;;;;;5113461;27;20536;-71
2023/06/23 13:06:19;;;;;;;;;;;25.60;78.30;;;;;;5109156;28;20007;-71
2023/06/23 13:08:44;;;;;;;;;;;25.70;77.20;;;;;;5108972;28;19943;-71
2023/06/23 13:11:10;;;;;;;;;;;25.70;78.00;;;;;;5107306;28;19918;-71
2023/06/23 13:13:35;;;;;;;;;;;25.80;76.70;;;;;;5108030;27;19916;-71
2023/06/23 13:16:01;;;;;;;;;;;25.80;77.70;;;;;;5108747;28;19915;-71
2023/06/23 13:18:26;;;;;;;;;;;25.90;77.20;;;;;;5109052;28;19912;-71
2023/06/23 13:20:52;;;;;;;;;;;25.90;76.00;;;;;;5108995;28;19908;-70
2023/06/23 13:23:17;;;;;;;;;;;25.90;75.90;;;;;;5108749;28;20254;-71
2023/06/23 13:25:45;;;;;;;;;;;26.00;76.10;;;;;;5107945;28;20153;-71
2023/06/23 13:28:10;;;;;;;;;;;26.00;76.90;;;;;;5107539;28;19954;-71
2023/06/23 13:30:36;;;;;;;;;;;26.10;76.00;;;;;;5109324;28;19912;-70
2023/06/23 13:33:01;;;;;;;;;;;26.20;76.20;;;;;;5108500;28;20737;-70
2023/06/23 13:35:27;;;;;;;;;;;26.10;76.30;;;;;;5108652;28;19918;-70
2023/06/23 13:37:55;;;;;;;;;;;26.20;75.70;;;;;;5108823;28;19914;-70
2023/06/23 13:40:21;;;;;;;;;;;26.20;75.10;;;;;;5107458;28;19938;-71
2023/06/23 13:42:47;;;;;;;;;;;26.20;75.50;;;;;;5107322;28;19948;-71
2023/06/23 13:45:12;;;;;;;;;;;26.20;74.90;;;;;;5108914;28;19988;-71
2023/06/23 13:47:38;;;;;;;;;;;26.20;75.30;;;;;;5108974;28;19908;-70
2023/06/23 13:50:11;;;;;;;;;;;26.20;75.60;;;;;;5108970;28;19912;-70
2023/06/23 13:52:37;;;;;;;;;;;26.30;75.70;;;;;;5111816;28;19911;-70
2023/06/23 13:55:03;;;;;;;;;;;26.20;75.00;;;;;;5109213;27;20373;-70
2023/06/23 13:57:29;;;;;;;;;;;26.20;74.60;;;;;;5108607;28;19923;-71
2023/06/23 13:59:54;;;;;;;;;;;26.20;74.70;;;;;;5108952;28;19998;-71
2023/06/23 14:02:20;;;;;;;;;;;26.10;74.10;;;;;;5108952;28;19908;-70
2023/06/23 14:04:45;;;;;;;;;;;26.20;74.00;;;;;;5108704;28;20099;-71
2023/06/23 14:07:11;;;;;;;;;;;26.30;74.80;;;;;;5108732;28;20345;-70
2023/06/23 14:09:38;;;;;;;;;;;26.30;73.10;;;;;;5103659;28;19939;-71
2023/06/23 14:12:04;;;;;;;;;;;26.40;72.60;;;;;;5110456;28;19916;-71
2023/06/23 14:14:30;;;;;;;;;;;26.40;74.00;;;;;;5112641;28;19912;-70